Time;durP1;ratioP1;P1;durP2;ratioP2;P2;SDS_P1;SDS_P2;PMS_P1;PMS_P2;Temp;Humidity;BMP_temperature;BMP_pressure;BME280_temperature;BME280_humidity;BME280_pressure;Samples;Min_cycle;Max_cycle;Signal;HPM_P1;HPM_P2
2022/09/22 00:00:49;;;;;;;;;;;;;;;;;;5047370;28;47287;-77
2022/09/22 00:03:15;;;;;;;;;;;;;;;;;;5048609;28;43939;-76
2022/09/22 00:05:41;;;;;;;;;;;;;;;;;;5064412;28;47681;-76
2022/09/22 00:08:07;;;;;;;;;;;;;;;;;;5045688;28;45948;-76
2022/09/22 00:10:34;;;;;;;;;;;;;;;;;;5059428;28;42246;-76
2022/09/22 00:13:00;;;;;;;;;;;;;;;;;;5064671;28;46447;-77
2022/09/22 00:15:26;;;;;;;;;;;;;;;;;;5065161;28;35403;-77
2022/09/22 00:17:52;;;;;;;;;;;;;;;;;;5067662;28;45693;-77
2022/09/22 00:20:19;;;;;;;;;;;;;;;;;;5048188;28;46838;-77
2022/09/22 00:22:45;;;;;;;;;;;;;;;;;;5067220;28;42383;-76
2022/09/22 00:25:11;;;;;;;;;;;;;;;;;;5048547;28;49059;-76
2022/09/22 00:27:38;;;;;;;;;;;;;;;;;;5046128;28;45428;-76
2022/09/22 00:30:04;;;;;;;;;;;;;;;;;;5041146;28;44878;-76
2022/09/22 00:32:30;;;;;;;;;;;;;;;;;;5065664;28;46679;-76
2022/09/22 00:34:57;;;;;;;;;;;;;;;;;;5066879;28;48388;-76
2022/09/22 00:37:23;;;;;;;;;;;;;;;;;;5066252;28;44979;-76
2022/09/22 00:39:51;;;;;;;;;;;;;;;;;;5044858;28;46280;-76
2022/09/22 00:42:18;;;;;;;;;;;;;;;;;;5048250;28;43733;-76
2022/09/22 00:44:44;;;;;;;;;;;;;;;;;;5048123;28;48143;-76
2022/09/22 00:47:11;;;;;;;;;;;;;;;;;;5044364;28;48628;-76
2022/09/22 00:49:37;;;;;;;;;;;;;;;;;;5051826;28;43260;-76
2022/09/22 00:52:03;;;;;;;;;;;;;;;;;;5059247;28;46669;-76
2022/09/22 00:54:29;;;;;;;;;;;;;;;;;;5049075;28;47249;-76
2022/09/22 00:56:56;;;;;;;;;;;;;;;;;;5065943;28;41085;-76
2022/09/22 00:59:22;;;;;;;;;;;;;;;;;;5064726;28;48977;-76
2022/09/22 01:01:48;;;;;;;;;;;;;;;;;;5048406;28;42068;-76
2022/09/22 01:04:15;;;;;;;;;;;;;;;;;;5062799;28;45547;-76
2022/09/22 01:06:42;;;;;;;;;;;;;;;;;;5061912;28;48022;-76
2022/09/22 01:09:08;;;;;;;;;;;;;;;;;;5064767;28;46392;-77
2022/09/22 01:11:34;;;;;;;;;;;;;;;;;;5064328;28;44642;-76
2022/09/22 01:14:00;;;;;;;;;;;;;;;;;;5046537;28;46757;-76
2022/09/22 01:16:26;;;;;;;;;;;;;;;;;;5047650;28;42265;-76
2022/09/22 01:18:53;;;;;;;;;;;;;;;;;;5047450;28;45134;-76
2022/09/22 01:21:19;;;;;;;;;;;;;;;;;;5060958;28;43695;-76
2022/09/22 01:23:46;;;;;;;;;;;;;;;;;;5068216;28;47376;-76
2022/09/22 01:26:12;;;;;;;;;;;;;;;;;;5051184;28;47427;-76
2022/09/22 01:28:38;;;;;;;;;;;;;;;;;;5048682;28;45085;-76
2022/09/22 01:31:04;;;;;;;;;;;;;;;;;;5048855;28;43785;-76
2022/09/22 01:33:30;;;;;;;;;;;;;;;;;;5066859;28;46888;-76
2022/09/22 01:35:57;;;;;;;;;;;;;;;;;;5050939;28;44001;-76
2022/09/22 01:38:23;;;;;;;;;;;;;;;;;;5049702;28;46133;-76
2022/09/22 01:40:49;;;;;;;;;;;;;;;;;;5051665;28;46184;-76
2022/09/22 01:43:16;;;;;;;;;;;;;;;;;;5049079;28;47839;-76
2022/09/22 01:45:42;;;;;;;;;;;;;;;;;;5049238;28;48388;-76
2022/09/22 01:48:08;;;;;;;;;;;;;;;;;;5050934;28;44157;-76
2022/09/22 01:50:34;;;;;;;;;;;;;;;;;;5049585;28;46390;-76
2022/09/22 01:53:00;;;;;;;;;;;;;;;;;;5049364;28;46962;-76
2022/09/22 01:55:27;;;;;;;;;;;;;;;;;;5054684;28;42792;-77
2022/09/22 01:57:53;;;;;;;;;;;;;;;;;;5063522;28;47828;-76
2022/09/22 02:00:19;;;;;;;;;;;;;;;;;;5069154;28;45476;-76
2022/09/22 02:02:45;;;;;;;;;;;;;;;;;;5048855;28;43923;-76
2022/09/22 02:05:12;;;;;;;;;;;;;;;;;;5066705;28;45443;-76
2022/09/22 02:07:38;;;;;;;;;;;;;;;;;;5068300;28;41938;-76
2022/09/22 02:10:04;;;;;;;;;;;;;;;;;;5050180;28;46156;-76
2022/09/22 02:12:30;;;;;;;;;;;;;;;;;;5051554;28;47340;-76
2022/09/22 02:14:56;;;;;;;;;;;;;;;;;;5045817;28;45043;-76
2022/09/22 02:17:23;;;;;;;;;;;;;;;;;;5067170;28;45162;-76
2022/09/22 02:19:50;;;;;;;;;;;;;;;;;;5060739;28;48405;-76
2022/09/22 02:22:16;;;;;;;;;;;;;;;;;;5047854;28;44269;-76
2022/09/22 02:24:42;;;;;;;;;;;;;;;;;;5077841;28;47402;-76
2022/09/22 02:27:08;;;;;;;;;;;;;;;;;;5060434;28;45157;-76
2022/09/22 02:29:35;;;;;;;;;;;;;;;;;;5056228;28;45010;-76
2022/09/22 02:32:01;;;;;;;;;;;;;;;;;;5065631;28;47290;-76
2022/09/22 02:34:27;;;;;;;;;;;;;;;;;;5050631;28;42823;-76
2022/09/22 02:36:53;;;;;;;;;;;;;;;;;;5068218;28;46716;-76
2022/09/22 02:39:19;;;;;;;;;;;;;;;;;;5066114;28;47208;-76
2022/09/22 02:41:46;;;;;;;;;;;;;;;;;;5065299;28;41527;-76
2022/09/22 02:44:12;;;;;;;;;;;;;;;;;;5050082;28;46505;-76
2022/09/22 02:46:38;;;;;;;;;;;;;;;;;;5047699;28;46077;-76
2022/09/22 02:49:04;;;;;;;;;;;;;;;;;;5067897;28;45671;-76
2022/09/22 02:51:31;;;;;;;;;;;;;;;;;;5064639;28;47187;-76
2022/09/22 02:53:57;;;;;;;;;;;;;;;;;;5067572;28;42109;-76
2022/09/22 02:56:23;;;;;;;;;;;;;;;;;;5069022;28;47616;-76
2022/09/22 02:58:49;;;;;;;;;;;;;;;;;;5068861;28;47303;-76
2022/09/22 03:01:19;;;;;;;;;;;;;;;;;;5049586;28;45075;-76
2022/09/22 03:03:45;;;;;;;;;;;;;;;;;;5046767;28;47415;-76
2022/09/22 03:06:11;;;;;;;;;;;;;;;;;;5049769;28;47274;-76
2022/09/22 03:08:37;;;;;;;;;;;;;;;;;;5067885;28;47776;-76
2022/09/22 03:11:03;;;;;;;;;;;;;;;;;;5065431;28;48273;-76
2022/09/22 03:13:30;;;;;;;;;;;;;;;;;;5048872;28;44119;-76
2022/09/22 03:15:56;;;;;;;;;;;;;;;;;;5066496;28;46982;-76
2022/09/22 03:18:22;;;;;;;;;;;;;;;;;;5052442;28;45961;-77
2022/09/22 03:20:48;;;;;;;;;;;;;;;;;;5047628;28;45098;-76
2022/09/22 03:23:14;;;;;;;;;;;;;;;;;;5067145;28;46306;-76
2022/09/22 03:25:41;;;;;;;;;;;;;;;;;;5065962;28;48024;-76
2022/09/22 03:28:07;;;;;;;;;;;;;;;;;;5048322;28;44700;-76
2022/09/22 03:30:35;;;;;;;;;;;;;;;;;;5047968;28;47526;-76
2022/09/22 03:33:01;;;;;;;;;;;;;;;;;;5047078;28;41803;-76
2022/09/22 03:35:27;;;;;;;;;;;;;;;;;;5049364;28;45193;-77
2022/09/22 03:37:53;;;;;;;;;;;;;;;;;;5045421;28;47344;-76
2022/09/22 03:40:21;;;;;;;;;;;;;;;;;;5059321;28;45123;-76
2022/09/22 03:42:47;;;;;;;;;;;;;;;;;;5046782;28;46655;-76
2022/09/22 03:45:14;;;;;;;;;;;;;;;;;;5065262;28;47301;-76
2022/09/22 03:47:40;;;;;;;;;;;;;;;;;;5038226;28;45126;-76
2022/09/22 03:50:06;;;;;;;;;;;;;;;;;;5035408;28;46584;-76
2022/09/22 03:52:33;;;;;;;;;;;;;;;;;;5046285;28;43919;-76
2022/09/22 03:55:01;;;;;;;;;;;;;;;;;;5047275;28;46370;-76
2022/09/22 03:57:27;;;;;;;;;;;;;;;;;;5065341;28;48282;-76
2022/09/22 03:59:54;;;;;;;;;;;;;;;;;;5047270;28;44103;-76
2022/09/22 04:02:20;;;;;;;;;;;;;;;;;;5045678;28;46490;-76
2022/09/22 04:04:46;;;;;;;;;;;;;;;;;;5065741;28;48408;-76
2022/09/22 04:07:12;;;;;;;;;;;;;;;;;;5049074;28;43549;-76
2022/09/22 04:09:40;;;;;;;;;;;;;;;;;;5066343;28;45835;-77
2022/09/22 04:12:07;;;;;;;;;;;;;;;;;;5039126;28;47304;-76
2022/09/22 04:14:33;;;;;;;;;;;;;;;;;;5048450;28;46795;-76
2022/09/22 04:16:59;;;;;;;;;;;;;;;;;;5049474;28;44632;-78
2022/09/22 04:19:26;;;;;;;;;;;;;;;;;;5060521;28;46156;-78
2022/09/22 04:21:52;;;;;;;;;;;;;;;;;;5055736;28;48914;-78
2022/09/22 04:24:23;;;;;;;;;;;;;;;;;;5054141;28;45768;-78
2022/09/22 04:26:49;;;;;;;;;;;;;;;;;;5049232;28;43900;-78
2022/09/22 04:29:36;;;;;;;;;;;;;;;;;;5062954;28;19929;-78
2022/09/22 04:32:02;;;;;;;;;;;;;;;;;;5052411;28;48349;-78
2022/09/22 04:34:28;;;;;;;;;;;;;;;;;;5056459;28;43865;-78
2022/09/22 04:36:54;;;;;;;;;;;;;;;;;;5074229;28;48762;-77
2022/09/22 04:39:20;;;;;;;;;;;;;;;;;;5072206;28;41208;-78
2022/09/22 04:41:49;;;;;;;;;;;;;;;;;;5069665;28;47013;-78
2022/09/22 04:44:15;;;;;;;;;;;;;;;;;;5055796;28;46897;-78
2022/09/22 04:46:44;;;;;;;;;;;;;;;;;;5058714;28;43758;-78
2022/09/22 04:49:11;;;;;;;;;;;;;;;;;;5081361;28;44837;-78
2022/09/22 04:51:37;;;;;;;;;;;;;;;;;;5062460;28;47245;-78
2022/09/22 04:54:03;;;;;;;;;;;;;;;;;;5063025;28;42192;-78
2022/09/22 04:56:29;;;;;;;;;;;;;;;;;;5064204;28;47263;-78
2022/09/22 04:58:55;;;;;;;;;;;;;;;;;;5057461;28;43443;-78
2022/09/22 05:01:22;;;;;;;;;;;;;;;;;;5061557;28;47643;-78
2022/09/22 05:03:48;;;;;;;;;;;;;;;;;;5063972;28;47228;-78
2022/09/22 05:06:14;;;;;;;;;;;;;;;;;;5082278;28;44066;-78
2022/09/22 05:08:40;;;;;;;;;;;;;;;;;;5064394;28;47796;-78
2022/09/22 05:11:08;;;;;;;;;;;;;;;;;;5062082;28;45592;-78
2022/09/22 05:13:35;;;;;;;;;;;;;;;;;;5052407;28;44869;-77
2022/09/22 05:16:01;;;;;;;;;;;;;;;;;;5058354;28;45184;-78
2022/09/22 05:18:28;;;;;;;;;;;;;;;;;;5055406;28;43837;-78
2022/09/22 05:20:54;;;;;;;;;;;;;;;;;;5061090;28;46696;-78
2022/09/22 05:23:20;;;;;;;;;;;;;;;;;;5058376;28;47399;-77
2022/09/22 05:25:46;;;;;;;;;;;;;;;;;;5071701;28;43085;-77
2022/09/22 05:28:13;;;;;;;;;;;;;;;;;;5052623;28;46330;-77
2022/09/22 05:30:39;;;;;;;;;;;;;;;;;;5067215;28;46731;-77
2022/09/22 05:33:05;;;;;;;;;;;;;;;;;;5055972;28;42316;-77
2022/09/22 05:35:31;;;;;;;;;;;;;;;;;;5064033;28;46612;-77
2022/09/22 05:38:02;;;;;;;;;;;;;;;;;;5052785;28;47393;-77
2022/09/22 05:40:29;;;;;;;;;;;;;;;;;;5053131;28;47846;-77
2022/09/22 05:42:56;;;;;;;;;;;;;;;;;;5050479;28;45372;-77
2022/09/22 05:45:22;;;;;;;;;;;;;;;;;;5049366;28;45129;-77
2022/09/22 05:47:48;;;;;;;;;;;;;;;;;;5043267;28;47693;-76
2022/09/22 05:50:14;;;;;;;;;;;;;;;;;;5047090;28;47876;-77
2022/09/22 05:52:42;;;;;;;;;;;;;;;;;;5046176;28;42128;-77
2022/09/22 05:55:08;;;;;;;;;;;;;;;;;;5069899;28;46710;-77
2022/09/22 05:57:34;;;;;;;;;;;;;;;;;;5070805;28;47217;-77
2022/09/22 06:00:00;;;;;;;;;;;;;;;;;;5054762;28;43936;-78
2022/09/22 06:02:27;;;;;;;;;;;;;;;;;;5042312;28;48322;-78
2022/09/22 06:04:53;;;;;;;;;;;;;;;;;;5063687;28;41757;-78
2022/09/22 06:07:19;;;;;;;;;;;;;;;;;;5052281;28;45718;-77
2022/09/22 06:09:45;;;;;;;;;;;;;;;;;;5061643;28;45422;-77
2022/09/22 06:12:11;;;;;;;;;;;;;;;;;;5052044;28;42454;-77
2022/09/22 06:14:37;;;;;;;;;;;;;;;;;;5051924;28;46488;-77
2022/09/22 06:17:04;;;;;;;;;;;;;;;;;;5071655;28;45634;-77
2022/09/22 06:19:31;;;;;;;;;;;;;;;;;;5067326;28;42778;-77
2022/09/22 06:21:57;;;;;;;;;;;;;;;;;;5050203;28;45503;-77
2022/09/22 06:24:23;;;;;;;;;;;;;;;;;;5049444;28;42458;-77
2022/09/22 06:26:50;;;;;;;;;;;;;;;;;;5061729;28;47069;-77
2022/09/22 06:29:16;;;;;;;;;;;;;;;;;;5065899;28;48521;-77
2022/09/22 06:31:42;;;;;;;;;;;;;;;;;;5059113;28;45174;-77
2022/09/22 06:34:10;;;;;;;;;;;;;;;;;;5053461;28;47419;-77
2022/09/22 06:36:36;;;;;;;;;;;;;;;;;;5048769;28;47030;-77
2022/09/22 06:39:03;;;;;;;;;;;;;;;;;;5066321;28;43729;-77
2022/09/22 06:41:29;;;;;;;;;;;;;;;;;;5071581;28;47235;-77
2022/09/22 06:43:55;;;;;;;;;;;;;;;;;;5059435;28;45015;-77
2022/09/22 06:46:22;;;;;;;;;;;;;;;;;;5051242;28;47301;-77
2022/09/22 06:48:48;;;;;;;;;;;;;;;;;;5048937;28;45193;-77
2022/09/22 06:51:15;;;;;;;;;;;;;;;;;;5047301;28;46064;-77
2022/09/22 06:53:43;;;;;;;;;;;;;;;;;;5048692;28;44990;-77
2022/09/22 06:56:12;;;;;;;;;;;;;;;;;;5043727;28;47925;-76
2022/09/22 06:58:41;;;;;;;;;;;;;;;;;;5066946;28;43721;-77
2022/09/22 07:01:30;;;;;;;;;;;;;;;;;;5050257;28;19928;-77
2022/09/22 07:03:56;;;;;;;;;;;;;;;;;;5044857;28;45166;-75
2022/09/22 07:06:23;;;;;;;;;;;;;;;;;;5047791;28;46070;-76
2022/09/22 07:08:49;;;;;;;;;;;;;;;;;;5075512;28;47548;-76
2022/09/22 07:11:22;;;;;;;;;;;;;;;;;;5059795;28;43979;-77
2022/09/22 07:13:48;;;;;;;;;;;;;;;;;;5071722;28;45925;-77
2022/09/22 07:16:15;;;;;;;;;;;;;;;;;;5050280;28;47176;-77
2022/09/22 07:18:41;;;;;;;;;;;;;;;;;;5062622;28;45003;-76
2022/09/22 07:21:07;;;;;;;;;;;;;;;;;;5047088;28;46620;-76
2022/09/22 07:23:34;;;;;;;;;;;;;;;;;;5042978;28;48283;-77
2022/09/22 07:26:01;;;;;;;;;;;;;;;;;;5064213;28;42979;-77
2022/09/22 07:28:28;;;;;;;;;;;;;;;;;;5066656;28;47164;-76
2022/09/22 07:30:56;;;;;;;;;;;;;;;;;;5066638;28;44061;-75
2022/09/22 07:33:22;;;;;;;;;;;;;;;;;;5065677;28;47971;-76
2022/09/22 07:35:49;;;;;;;;;;;;;;;;;;5046906;28;48377;-76
2022/09/22 07:38:15;;;;;;;;;;;;;;;;;;5052348;28;44053;-76
2022/09/22 07:40:41;;;;;;;;;;;;;;;;;;5058523;28;46576;-76
2022/09/22 07:43:07;;;;;;;;;;;;;;;;;;5049802;28;46637;-74
2022/09/22 07:45:34;;;;;;;;;;;;;;;;;;5044669;28;44050;-74
2022/09/22 07:50:45;;;;;;;;;;;;;;;;;;5062739;28;45052;-75
2022/09/22 07:53:11;;;;;;;;;;;;;;;;;;5045787;28;47480;-76
2022/09/22 07:55:37;;;;;;;;;;;;;;;;;;5082209;28;45663;-76
2022/09/22 07:58:03;;;;;;;;;;;;;;;;;;5048783;28;44045;-76
2022/09/22 08:00:33;;;;;;;;;;;;;;;;;;5068221;28;46349;-77
2022/09/22 08:03:00;;;;;;;;;;;;;;;;;;5065189;28;48655;-76
2022/09/22 08:05:26;;;;;;;;;;;;;;;;;;5051182;28;44824;-76
2022/09/22 08:07:55;;;;;;;;;;;;;;;;;;5049065;28;47715;-77
2022/09/22 08:10:22;;;;;;;;;;;;;;;;;;5048881;28;44595;-77
2022/09/22 08:12:48;;;;;;;;;;;;;;;;;;5068216;28;47828;-77
2022/09/22 08:15:14;;;;;;;;;;;;;;;;;;5049781;28;47289;-77
2022/09/22 08:17:42;;;;;;;;;;;;;;;;;;5050897;28;44028;-75
2022/09/22 08:20:08;;;;;;;;;;;;;;;;;;5062387;28;46428;-75
2022/09/22 08:22:35;;;;;;;;;;;;;;;;;;5064236;28;48382;-73
2022/09/22 08:25:01;;;;;;;;;;;;;;;;;;5044100;28;43979;-74
2022/09/22 08:27:28;;;;;;;;;;;;;;;;;;5059696;28;47548;-75
2022/09/22 08:29:54;;;;;;;;;;;;;;;;;;5053189;28;47300;-75
2022/09/22 08:32:21;;;;;;;;;;;;;;;;;;5064730;28;44919;-77
2022/09/22 08:34:47;;;;;;;;;;;;;;;;;;5061887;28;48362;-76
2022/09/22 08:37:13;;;;;;;;;;;;;;;;;;5065799;28;42401;-76
2022/09/22 08:39:39;;;;;;;;;;;;;;;;;;5046709;28;45375;-76
2022/09/22 08:42:07;;;;;;;;;;;;;;;;;;5039409;28;48386;-76
2022/09/22 08:44:36;;;;;;;;;;;;;;;;;;5061618;28;44990;-76
2022/09/22 08:47:02;;;;;;;;;;;;;;;;;;5040411;28;47854;-76
2022/09/22 08:52:14;;;;;;;;;;;;;;;;;;5059330;28;45033;-77
2022/09/22 08:54:40;;;;;;;;;;;;;;;;;;5065542;28;48592;-76
2022/09/22 08:57:09;;;;;;;;;;;;;;;;;;5043522;28;44059;-76
2022/09/22 08:59:36;;;;;;;;;;;;;;;;;;5058926;28;46614;-77
2022/09/22 09:02:02;;;;;;;;;;;;;;;;;;5040103;28;47032;-77
2022/09/22 09:04:28;;;;;;;;;;;;;;;;;;5049545;28;41779;-78
2022/09/22 09:06:55;;;;;;;;;;;;;;;;;;5069492;28;44783;-78
2022/09/22 09:09:21;;;;;;;;;;;;;;;;;;5051397;28;46652;-77
2022/09/22 09:11:47;;;;;;;;;;;;;;;;;;5063875;28;43695;-76
2022/09/22 09:14:13;;;;;;;;;;;;;;;;;;5045758;28;44812;-76
2022/09/22 09:16:40;;;;;;;;;;;;;;;;;;5072110;28;44692;-76
2022/09/22 09:19:06;;;;;;;;;;;;;;;;;;5047805;28;46479;-76
2022/09/22 09:21:32;;;;;;;;;;;;;;;;;;5047175;28;47330;-76
2022/09/22 09:24:00;;;;;;;;;;;;;;;;;;5067073;28;44000;-75
2022/09/22 09:26:48;;;;;;;;;;;;;;;;;;5058123;28;20380;-76
2022/09/22 09:29:14;;;;;;;;;;;;;;;;;;5065124;28;47289;-75
2022/09/22 09:31:40;;;;;;;;;;;;;;;;;;5069863;28;45176;-81
2022/09/22 09:34:07;;;;;;;;;;;;;;;;;;5055207;28;44816;-77
2022/09/22 09:36:33;;;;;;;;;;;;;;;;;;5069660;28;47283;-79
2022/09/22 09:38:59;;;;;;;;;;;;;;;;;;5046194;28;47246;-79
2022/09/22 09:41:25;;;;;;;;;;;;;;;;;;5068531;28;48186;-79
2022/09/22 09:43:53;;;;;;;;;;;;;;;;;;5053553;28;46328;-79
2022/09/22 09:46:22;;;;;;;;;;;;;;;;;;5054547;28;45549;-79
2022/09/22 09:48:48;;;;;;;;;;;;;;;;;;5069664;28;47166;-79
2022/09/22 09:51:14;;;;;;;;;;;;;;;;;;5058347;28;45045;-80
2022/09/22 09:53:41;;;;;;;;;;;;;;;;;;5067889;28;46811;-79
2022/09/22 09:56:07;;;;;;;;;;;;;;;;;;5054705;28;46121;-79
2022/09/22 10:01:32;;;;;;;;;;;;;;;;;;5050063;28;47851;-80
2022/09/22 10:03:58;;;;;;;;;;;;;;;;;;5048970;28;43878;-80
2022/09/22 10:06:25;;;;;;;;;;;;;;;;;;5060290;28;46649;-80
2022/09/22 10:08:51;;;;;;;;;;;;;;;;;;5053257;28;46635;-80
2022/09/22 10:11:18;;;;;;;;;;;;;;;;;;5056082;28;42844;-78
2022/09/22 10:13:44;;;;;;;;;;;;;;;;;;5070793;28;46714;-78
2022/09/22 10:16:10;;;;;;;;;;;;;;;;;;5051408;28;47218;-83
2022/09/22 10:18:39;;;;;;;;;;;;;;;;;;5073544;28;42489;-79
2022/09/22 10:21:06;;;;;;;;;;;;;;;;;;5052888;28;46838;-79
2022/09/22 10:23:32;;;;;;;;;;;;;;;;;;5052697;28;42057;-79
2022/09/22 10:25:58;;;;;;;;;;;;;;;;;;5067709;28;47840;-79
2022/09/22 10:28:24;;;;;;;;;;;;;;;;;;5055307;28;45278;-79
2022/09/22 10:30:52;;;;;;;;;;;;;;;;;;5054388;28;45152;-79
2022/09/22 10:33:19;;;;;;;;;;;;;;;;;;5054721;28;47787;-79
2022/09/22 10:35:46;;;;;;;;;;;;;;;;;;5072552;28;47193;-79
2022/09/22 10:38:12;;;;;;;;;;;;;;;;;;5052252;28;43853;-79
2022/09/22 10:40:38;;;;;;;;;;;;;;;;;;5067671;28;46582;-79
2022/09/22 10:43:04;;;;;;;;;;;;;;;;;;5058357;28;34591;-79
2022/09/22 10:45:30;;;;;;;;;;;;;;;;;;5053488;28;46758;-79
2022/09/22 10:47:57;;;;;;;;;;;;;;;;;;5053489;28;45472;-80
2022/09/22 10:50:24;;;;;;;;;;;;;;;;;;5069845;28;43923;-80
2022/09/22 10:52:50;;;;;;;;;;;;;;;;;;5069796;28;44652;-79
2022/09/22 10:55:17;;;;;;;;;;;;;;;;;;5047919;28;48318;-80
2022/09/22 10:57:43;;;;;;;;;;;;;;;;;;5047411;28;43450;-80
2022/09/22 11:00:10;;;;;;;;;;;;;;;;;;5034497;28;45159;-80
2022/09/22 11:02:37;;;;;;;;;;;;;;;;;;5059862;28;46661;-80
2022/09/22 11:05:03;;;;;;;;;;;;;;;;;;5051545;28;47788;-80
2022/09/22 11:13:01;;;;;;;;;;;;;;;;;;5054419;28;33110;-81
2022/09/22 11:15:27;;;;;;;;;;;;;;;;;;5069659;28;46518;-81
2022/09/22 11:17:53;;;;;;;;;;;;;;;;;;5054595;28;44164;-81
2022/09/22 11:20:21;;;;;;;;;;;;;;;;;;5053760;28;47823;-81
2022/09/22 11:22:50;;;;;;;;;;;;;;;;;;5055140;28;45577;-81
2022/09/22 11:25:16;;;;;;;;;;;;;;;;;;5071758;28;41886;-81
2022/09/22 11:27:42;;;;;;;;;;;;;;;;;;5053723;28;47028;-80
2022/09/22 11:30:08;;;;;;;;;;;;;;;;;;5072411;28;44376;-81
2022/09/22 11:32:36;;;;;;;;;;;;;;;;;;5072111;28;47878;-81
2022/09/22 11:35:02;;;;;;;;;;;;;;;;;;5054968;28;45664;-81
2022/09/22 11:37:29;;;;;;;;;;;;;;;;;;5049443;28;45277;-81
2022/09/22 11:39:55;;;;;;;;;;;;;;;;;;5052659;28;47416;-81
2022/09/22 11:42:23;;;;;;;;;;;;;;;;;;5050168;28;46515;-81
2022/09/22 11:44:50;;;;;;;;;;;;;;;;;;5050049;28;45126;-81
2022/09/22 11:47:16;;;;;;;;;;;;;;;;;;5054449;28;46316;-81
2022/09/22 11:49:42;;;;;;;;;;;;;;;;;;5049923;28;44191;-81
2022/09/22 11:52:09;;;;;;;;;;;;;;;;;;5053319;28;46661;-82
2022/09/22 11:54:38;;;;;;;;;;;;;;;;;;5050386;28;45306;-81
2022/09/22 11:57:05;;;;;;;;;;;;;;;;;;5052613;28;45159;-81
2022/09/22 11:59:31;;;;;;;;;;;;;;;;;;5054069;28;46768;-82
2022/09/22 12:01:57;;;;;;;;;;;;;;;;;;5071525;28;48410;-80
2022/09/22 12:04:23;;;;;;;;;;;;;;;;;;5049245;28;43329;-81
2022/09/22 12:06:50;;;;;;;;;;;;;;;;;;5049657;28;46567;-81
2022/09/22 12:09:17;;;;;;;;;;;;;;;;;;5051310;28;47256;-81
2022/09/22 12:11:43;;;;;;;;;;;;;;;;;;5051076;28;47692;-80
2022/09/22 12:14:09;;;;;;;;;;;;;;;;;;5068758;28;45802;-81
2022/09/22 12:16:40;;;;;;;;;;;;;;;;;;5052950;28;43313;-81
2022/09/22 12:19:06;;;;;;;;;;;;;;;;;;5051005;28;48081;-82
2022/09/22 12:21:32;;;;;;;;;;;;;;;;;;5069813;28;48610;-81
2022/09/22 12:23:59;;;;;;;;;;;;;;;;;;5049119;28;42618;-81
2022/09/22 12:26:25;;;;;;;;;;;;;;;;;;5069497;28;47926;-81
2022/09/22 12:28:51;;;;;;;;;;;;;;;;;;5049605;28;48348;-81
2022/09/22 12:31:18;;;;;;;;;;;;;;;;;;5070880;28;42167;-81
2022/09/22 12:33:45;;;;;;;;;;;;;;;;;;5072589;28;46756;-81
2022/09/22 12:36:11;;;;;;;;;;;;;;;;;;5046358;28;46030;-81
2022/09/22 12:38:37;;;;;;;;;;;;;;;;;;5052736;28;44805;-81
2022/09/22 12:41:04;;;;;;;;;;;;;;;;;;5068268;28;48370;-81
2022/09/22 12:43:30;;;;;;;;;;;;;;;;;;5049812;28;44021;-81
2022/09/22 12:45:56;;;;;;;;;;;;;;;;;;5048008;28;44902;-81
2022/09/22 12:48:22;;;;;;;;;;;;;;;;;;5058264;28;48344;-81
2022/09/22 12:50:49;;;;;;;;;;;;;;;;;;5057615;28;44002;-81
2022/09/22 12:53:16;;;;;;;;;;;;;;;;;;5059971;28;47171;-80
2022/09/22 12:55:42;;;;;;;;;;;;;;;;;;5042546;28;45097;-81
2022/09/22 12:58:08;;;;;;;;;;;;;;;;;;5047347;28;46374;-81
2022/09/22 13:00:34;;;;;;;;;;;;;;;;;;5044328;28;47623;-80
2022/09/22 13:03:00;;;;;;;;;;;;;;;;;;5047248;28;45096;-80
2022/09/22 13:05:27;;;;;;;;;;;;;;;;;;5065023;28;47365;-80
2022/09/22 13:07:53;;;;;;;;;;;;;;;;;;5050402;28;47127;-80
2022/09/22 13:10:19;;;;;;;;;;;;;;;;;;5047451;28;45212;-81
2022/09/22 13:12:45;;;;;;;;;;;;;;;;;;5049334;28;46651;-80
2022/09/22 13:15:11;;;;;;;;;;;;;;;;;;5048651;28;42710;-80
2022/09/22 13:17:38;;;;;;;;;;;;;;;;;;5074024;28;47080;-81
2022/09/22 13:20:04;;;;;;;;;;;;;;;;;;5057581;28;47264;-80
2022/09/22 13:22:30;;;;;;;;;;;;;;;;;;5074832;28;45145;-80
2022/09/22 13:24:57;;;;;;;;;;;;;;;;;;5054475;28;44870;-80
2022/09/22 13:27:23;;;;;;;;;;;;;;;;;;5053211;28;47291;-80
2022/09/22 13:29:49;;;;;;;;;;;;;;;;;;5049209;28;43967;-80
2022/09/22 13:32:16;;;;;;;;;;;;;;;;;;5069191;28;46636;-80
2022/09/22 13:34:43;;;;;;;;;;;;;;;;;;5072450;28;47015;-80
2022/09/22 13:37:10;;;;;;;;;;;;;;;;;;5069027;28;47803;-81
2022/09/22 13:39:37;;;;;;;;;;;;;;;;;;5048372;28;48371;-80
2022/09/22 13:42:06;;;;;;;;;;;;;;;;;;5065601;28;44151;-80
2022/09/22 13:44:33;;;;;;;;;;;;;;;;;;5042894;28;45419;-80
2022/09/22 13:46:59;;;;;;;;;;;;;;;;;;5052486;28;47008;-80
2022/09/22 13:49:25;;;;;;;;;;;;;;;;;;5068141;28;44222;-79
2022/09/22 13:51:51;;;;;;;;;;;;;;;;;;5051919;28;47858;-80
2022/09/22 13:54:18;;;;;;;;;;;;;;;;;;5055869;28;45863;-80
2022/09/22 13:56:44;;;;;;;;;;;;;;;;;;5067434;28;45155;-80
2022/09/22 13:59:11;;;;;;;;;;;;;;;;;;5065031;28;46319;-80
2022/09/22 14:01:38;;;;;;;;;;;;;;;;;;5067397;28;44046;-80
2022/09/22 14:04:04;;;;;;;;;;;;;;;;;;5053386;28;46877;-80
2022/09/22 14:06:30;;;;;;;;;;;;;;;;;;5038090;28;44836;-80
2022/09/22 14:08:56;;;;;;;;;;;;;;;;;;5046467;28;43879;-80
2022/09/22 14:11:23;;;;;;;;;;;;;;;;;;5054944;28;46640;-80
2022/09/22 14:13:49;;;;;;;;;;;;;;;;;;5050012;28;48398;-79
2022/09/22 14:16:15;;;;;;;;;;;;;;;;;;5060257;28;43987;-82
2022/09/22 14:18:41;;;;;;;;;;;;;;;;;;5072672;28;46423;-82
2022/09/22 14:21:08;;;;;;;;;;;;;;;;;;5072293;28;44040;-81
2022/09/22 14:23:34;;;;;;;;;;;;;;;;;;5059130;28;45323;-81
2022/09/22 14:26:00;;;;;;;;;;;;;;;;;;5046107;28;46816;-81
2022/09/22 14:28:27;;;;;;;;;;;;;;;;;;5065829;28;42783;-81
2022/09/22 14:30:53;;;;;;;;;;;;;;;;;;5056261;28;47979;-81
2022/09/22 14:33:21;;;;;;;;;;;;;;;;;;5052676;28;47199;-81
2022/09/22 14:35:48;;;;;;;;;;;;;;;;;;5061931;28;44079;-80
2022/09/22 14:38:14;;;;;;;;;;;;;;;;;;5064591;28;46413;-80
2022/09/22 14:40:46;;;;;;;;;;;;;;;;;;5053921;28;47299;-81
2022/09/22 14:43:13;;;;;;;;;;;;;;;;;;5050668;28;47758;-80
2022/09/22 14:45:39;;;;;;;;;;;;;;;;;;5041048;28;47217;-81
2022/09/22 14:48:05;;;;;;;;;;;;;;;;;;5036815;28;42052;-81
2022/09/22 14:50:33;;;;;;;;;;;;;;;;;;5047832;28;47709;-81
2022/09/22 14:53:00;;;;;;;;;;;;;;;;;;5031059;28;45434;-81
2022/09/22 14:55:27;;;;;;;;;;;;;;;;;;5045883;28;44083;-80
2022/09/22 14:57:54;;;;;;;;;;;;;;;;;;5066934;28;45522;-81
2022/09/22 15:03:05;;;;;;;;;;;;;;;;;;5065801;28;46642;-81
2022/09/22 15:05:33;;;;;;;;;;;;;;;;;;5070741;28;47291;-81
2022/09/22 15:07:59;;;;;;;;;;;;;;;;;;5052728;28;43666;-80
2022/09/22 15:10:25;;;;;;;;;;;;;;;;;;5047041;28;46607;-80
2022/09/22 15:12:52;;;;;;;;;;;;;;;;;;5044401;28;48150;-80
2022/09/22 15:15:18;;;;;;;;;;;;;;;;;;5043836;28;42116;-80
2022/09/22 15:20:29;;;;;;;;;;;;;;;;;;5075529;28;46372;-82
2022/09/22 15:22:55;;;;;;;;;;;;;;;;;;5046735;28;44032;-81
2022/09/22 15:25:22;;;;;;;;;;;;;;;;;;5064575;28;48353;-80
2022/09/22 15:27:52;;;;;;;;;;;;;;;;;;5057324;28;44570;-81
2022/09/22 15:30:18;;;;;;;;;;;;;;;;;;5071019;28;46665;-79
2022/09/22 15:32:47;;;;;;;;;;;;;;;;;;5059627;28;48308;-78
2022/09/22 15:35:13;;;;;;;;;;;;;;;;;;5056657;28;44378;-81
2022/09/22 15:37:41;;;;;;;;;;;;;;;;;;5070103;28;44265;-81
2022/09/22 15:40:07;;;;;;;;;;;;;;;;;;5053183;28;45532;-82
2022/09/22 15:42:34;;;;;;;;;;;;;;;;;;5074561;28;43725;-81
2022/09/22 15:45:03;;;;;;;;;;;;;;;;;;5066223;28;45735;-77
2022/09/22 15:47:29;;;;;;;;;;;;;;;;;;5049121;28;43718;-77
2022/09/22 15:49:56;;;;;;;;;;;;;;;;;;5070823;28;48082;-78
2022/09/22 15:52:22;;;;;;;;;;;;;;;;;;5056838;28;46403;-78
2022/09/22 15:54:48;;;;;;;;;;;;;;;;;;5048427;28;44032;-77
2022/09/22 15:57:15;;;;;;;;;;;;;;;;;;5062846;28;47034;-78
2022/09/22 15:59:41;;;;;;;;;;;;;;;;;;5049847;28;44343;-78
2022/09/22 16:02:08;;;;;;;;;;;;;;;;;;5063492;28;42690;-77
2022/09/22 16:04:34;;;;;;;;;;;;;;;;;;5056140;28;45320;-77
2022/09/22 16:07:01;;;;;;;;;;;;;;;;;;5055072;28;46882;-78
2022/09/22 16:09:27;;;;;;;;;;;;;;;;;;5065013;28;47621;-77
2022/09/22 16:11:54;;;;;;;;;;;;;;;;;;5063660;28;47337;-79
2022/09/22 16:14:21;;;;;;;;;;;;;;;;;;5045695;28;44060;-78
2022/09/22 16:16:48;;;;;;;;;;;;;;;;;;5050812;28;47805;-79
2022/09/22 16:19:15;;;;;;;;;;;;;;;;;;5045508;28;45521;-80
2022/09/22 16:21:41;;;;;;;;;;;;;;;;;;5046167;28;41771;-78
2022/09/22 16:24:08;;;;;;;;;;;;;;;;;;5049520;28;46761;-78
2022/09/22 16:26:34;;;;;;;;;;;;;;;;;;5048251;28;49462;-79
2022/09/22 16:29:01;;;;;;;;;;;;;;;;;;5044461;28;42027;-77
2022/09/22 16:31:27;;;;;;;;;;;;;;;;;;5063760;28;46608;-77
2022/09/22 16:33:53;;;;;;;;;;;;;;;;;;5047571;28;45120;-77
2022/09/22 16:36:20;;;;;;;;;;;;;;;;;;5061814;28;46631;-77
2022/09/22 16:38:46;;;;;;;;;;;;;;;;;;5048306;28;47348;-77
2022/09/22 16:41:12;;;;;;;;;;;;;;;;;;5049936;28;45248;-77
2022/09/22 16:43:39;;;;;;;;;;;;;;;;;;5050057;28;46567;-77
2022/09/22 16:48:50;;;;;;;;;;;;;;;;;;5063467;28;43456;-77
2022/09/22 16:51:18;;;;;;;;;;;;;;;;;;5051290;28;45022;-77
2022/09/22 16:53:49;;;;;;;;;;;;;;;;;;5070084;28;43489;-77
2022/09/22 16:56:16;;;;;;;;;;;;;;;;;;5048352;28;46092;-77
2022/09/22 16:58:42;;;;;;;;;;;;;;;;;;5067185;28;45715;-77
2022/09/22 17:01:08;;;;;;;;;;;;;;;;;;5065769;28;43956;-77
2022/09/22 17:03:34;;;;;;;;;;;;;;;;;;5053339;28;47665;-78